createdAt,value
2022-11-05T00:01:50.496Z,9.75
2022-11-05T00:04:35.955Z,9.55
2022-11-05T00:07:30.324Z,10.18
2022-11-05T00:10:13.157Z,10.10
2022-11-05T00:12:58.919Z,9.10
2022-11-05T00:15:44.146Z,13.00
2022-11-05T00:18:10.857Z,10.60
2022-11-05T00:20:37.535Z,10.35
2022-11-05T00:23:38.209Z,10.90
2022-11-05T00:26:09.772Z,8.60
2022-11-05T00:28:36.424Z,13.73
2022-11-05T00:31:13.704Z,13.43
2022-11-05T00:33:42.942Z,13.02
2022-11-05T00:36:10.953Z,11.55
2022-11-05T00:38:37.802Z,13.38
2022-11-05T00:41:04.829Z,12.15
2022-11-05T00:44:03.873Z,11.13
2022-11-05T00:46:30.642Z,18.17
2022-11-05T00:49:16.041Z,14.93
2022-11-05T00:51:42.705Z,15.68
2022-11-05T00:54:09.623Z,17.35
2022-11-05T00:56:36.381Z,12.50
2022-11-05T00:59:03.149Z,14.32
2022-11-05T01:01:30.034Z,11.32
2022-11-05T01:03:57.019Z,13.10
2022-11-05T01:06:24.139Z,13.75
2022-11-05T01:08:50.942Z,14.68
2022-11-05T01:11:35.383Z,9.55
2022-11-05T01:14:08.596Z,16.02
2022-11-05T01:16:36.420Z,14.23
2022-11-05T01:19:04.541Z,15.18
2022-11-05T01:21:31.345Z,21.73
2022-11-05T01:23:58.149Z,12.18
2022-11-05T01:26:24.937Z,20.15
2022-11-05T01:28:53.284Z,15.30
2022-11-05T01:31:20.603Z,12.70
2022-11-05T01:33:47.630Z,15.43
2022-11-05T01:36:14.417Z,12.48
2022-11-05T01:38:41.672Z,14.80
2022-11-05T01:41:09.000Z,16.17
2022-11-05T01:43:52.320Z,15.93
2022-11-05T01:46:23.374Z,14.65
2022-11-05T01:48:55.194Z,13.27
2022-11-05T01:51:27.798Z,15.60
2022-11-05T01:54:03.030Z,16.92
2022-11-05T01:56:38.079Z,16.20
2022-11-05T01:59:23.500Z,15.98
2022-11-05T02:01:51.148Z,13.13
2022-11-05T02:04:30.768Z,14.13
2022-11-05T02:06:58.192Z,13.50
2022-11-05T02:09:30.892Z,13.73
2022-11-05T02:11:58.690Z,11.60
2022-11-05T02:14:26.015Z,17.48
2022-11-05T02:17:14.738Z,15.93
2022-11-05T02:20:12.742Z,13.57
2022-11-05T02:23:03.201Z,14.13
2022-11-05T02:25:54.734Z,11.82
2022-11-05T02:28:43.512Z,12.13
2022-11-05T02:31:48.112Z,8.88
2022-11-05T02:34:41.406Z,11.15
2022-11-05T02:37:40.543Z,13.93
2022-11-05T02:40:36.095Z,15.35
2022-11-05T02:43:37.006Z,16.13
2022-11-05T02:46:14.699Z,13.70
2022-11-05T02:49:08.977Z,13.77
2022-11-05T02:51:50.885Z,11.35
2022-11-05T02:54:25.072Z,8.25
2022-11-05T02:56:53.271Z,14.02
2022-11-05T02:59:20.128Z,12.63
2022-11-05T03:01:48.285Z,17.80
2022-11-05T03:04:19.144Z,19.15
2022-11-05T03:07:07.738Z,14.45
2022-11-05T03:09:58.967Z,17.23
2022-11-05T03:12:57.370Z,14.93
2022-11-05T03:15:55.017Z,11.95
2022-11-05T03:18:27.896Z,12.63
2022-11-05T03:21:14.450Z,21.60
2022-11-05T03:23:54.360Z,13.40
2022-11-05T03:26:55.536Z,15.88
2022-11-05T03:29:50.621Z,12.77
2022-11-05T03:32:20.655Z,15.98
2022-11-05T03:34:51.686Z,14.25
2022-11-05T03:37:22.483Z,12.55
2022-11-05T03:39:54.150Z,13.82
2022-11-05T03:42:25.836Z,16.25
2022-11-05T03:47:29.809Z,14.68
2022-11-05T03:50:23.807Z,10.70
2022-11-05T03:52:59.928Z,16.20
2022-11-05T03:55:35.436Z,13.63
2022-11-05T03:58:05.074Z,18.95
2022-11-05T04:00:32.114Z,13.60
2022-11-05T04:02:59.057Z,11.68
2022-11-05T04:05:25.968Z,16.00
2022-11-05T04:08:14.284Z,13.93
2022-11-05T04:11:17.011Z,12.57
2022-11-05T04:13:43.669Z,13.73
2022-11-05T04:16:28.974Z,16.13
2022-11-05T04:18:55.675Z,10.68
2022-11-05T04:21:41.176Z,11.32
2022-11-05T04:24:13.297Z,20.08
2022-11-05T04:29:26.895Z,12.40
2022-11-05T04:31:54.103Z,15.18
2022-11-05T04:34:24.569Z,15.35
2022-11-05T04:36:53.149Z,12.50
2022-11-05T04:39:20.795Z,9.10
2022-11-05T04:41:48.585Z,13.30
2022-11-05T04:44:16.556Z,16.85
2022-11-05T04:46:43.599Z,19.85
2022-11-05T04:49:10.217Z,21.60
2022-11-05T04:51:36.909Z,14.43
2022-11-05T04:54:03.769Z,18.80
2022-11-05T04:56:30.477Z,13.15
2022-11-05T04:58:57.064Z,12.82
2022-11-05T05:01:25.353Z,14.10
2022-11-05T05:03:53.856Z,10.77
2022-11-05T05:06:21.432Z,13.20
2022-11-05T05:08:49.474Z,15.23
2022-11-05T05:11:18.833Z,12.15
2022-11-05T05:13:45.455Z,11.48
2022-11-05T05:16:20.118Z,11.52
2022-11-05T05:18:47.314Z,18.95
2022-11-05T05:21:33.404Z,14.10
2022-11-05T05:24:03.418Z,15.93
2022-11-05T05:26:30.203Z,14.35
2022-11-05T05:28:56.849Z,16.65
2022-11-05T05:31:23.804Z,14.05
2022-11-05T05:33:54.045Z,15.27
2022-11-05T05:36:21.884Z,11.45
2022-11-05T05:38:49.169Z,12.90
2022-11-05T05:41:16.349Z,19.83
2022-11-05T05:43:43.469Z,15.95
2022-11-05T05:46:12.307Z,15.40
2022-11-05T05:48:39.576Z,14.70
2022-11-05T05:51:09.698Z,16.42
2022-11-05T05:53:36.865Z,14.57
2022-11-05T05:56:04.879Z,13.23
2022-11-05T05:58:34.700Z,12.70
2022-11-05T06:01:03.388Z,12.32
2022-11-05T06:03:30.139Z,11.77
2022-11-05T06:06:04.533Z,16.05
2022-11-05T06:08:31.338Z,18.38
2022-11-05T06:10:59.051Z,12.98
2022-11-05T06:13:26.963Z,14.60
2022-11-05T06:15:53.993Z,17.52
2022-11-05T06:18:20.747Z,13.90
2022-11-05T06:20:47.435Z,11.02
2022-11-05T06:23:14.192Z,15.65
2022-11-05T06:25:41.568Z,9.98
2022-11-05T06:28:08.433Z,14.18
2022-11-05T06:30:35.296Z,13.88
2022-11-05T06:33:03.804Z,13.20
2022-11-05T06:35:30.777Z,16.85
2022-11-05T06:38:01.653Z,14.05
2022-11-05T06:40:29.350Z,11.43
2022-11-05T06:42:56.301Z,14.90
2022-11-05T06:45:23.082Z,15.35
2022-11-05T06:47:55.926Z,13.35
2022-11-05T06:50:23.599Z,11.65
2022-11-05T06:53:02.326Z,13.07
2022-11-05T06:55:30.788Z,17.52
2022-11-05T06:57:57.711Z,12.85
2022-11-05T07:00:25.133Z,18.77
2022-11-05T07:02:51.824Z,12.82
2022-11-05T07:05:18.708Z,14.75
2022-11-05T07:07:45.761Z,13.50
2022-11-05T07:10:15.111Z,11.70
2022-11-05T07:12:41.894Z,12.65
2022-11-05T07:15:10.114Z,12.68
2022-11-05T07:17:37.077Z,10.90
2022-11-05T07:20:05.997Z,13.52
2022-11-05T07:22:33.442Z,15.40
2022-11-05T07:25:00.455Z,10.23
2022-11-05T07:27:27.247Z,10.55
2022-11-05T07:29:53.863Z,11.40
2022-11-05T07:32:20.584Z,13.30
2022-11-05T07:34:47.266Z,16.23
2022-11-05T07:37:16.558Z,13.52
2022-11-05T07:39:43.388Z,13.40
2022-11-05T07:42:13.329Z,11.70
2022-11-05T07:44:40.062Z,8.55
2022-11-05T07:47:06.693Z,9.57
2022-11-05T07:49:33.386Z,10.20
2022-11-05T07:52:00.139Z,11.32
2022-11-05T07:54:27.145Z,10.25
2022-11-05T07:56:53.802Z,12.88
2022-11-05T07:59:20.554Z,10.20
2022-11-05T08:01:47.599Z,9.60
2022-11-05T08:04:14.467Z,8.30
2022-11-05T08:06:41.115Z,9.43
2022-11-05T08:09:07.884Z,13.07
2022-11-05T08:11:35.892Z,12.80
2022-11-05T08:14:02.574Z,10.85
2022-11-05T08:16:29.309Z,13.43
2022-11-05T08:18:56.040Z,11.05
2022-11-05T08:21:22.718Z,12.93
2022-11-05T08:23:49.380Z,10.82
2022-11-05T08:26:16.138Z,7.70
2022-11-05T08:28:42.752Z,11.13
2022-11-05T08:31:09.418Z,8.35
2022-11-05T08:33:36.186Z,9.65
2022-11-05T08:36:04.489Z,9.40
2022-11-05T08:38:31.686Z,9.40
2022-11-05T08:40:58.465Z,12.38
2022-11-05T08:43:25.597Z,8.88
2022-11-05T08:45:52.381Z,9.38
2022-11-05T08:48:19.624Z,6.82
2022-11-05T08:50:48.306Z,8.60
2022-11-05T08:53:15.859Z,8.73
2022-11-05T08:55:43.977Z,5.35
2022-11-05T08:58:13.097Z,8.73
2022-11-05T09:00:40.271Z,5.28
2022-11-05T09:03:08.717Z,7.25
2022-11-05T09:05:40.764Z,6.90
2022-11-05T09:08:10.607Z,6.93
2022-11-05T09:10:37.706Z,4.95
2022-11-05T09:13:04.949Z,7.97
2022-11-05T09:15:32.232Z,5.80
2022-11-05T09:17:59.929Z,5.90
2022-11-05T09:20:26.621Z,8.25
2022-11-05T09:22:53.527Z,8.80
2022-11-05T09:25:20.410Z,8.27
2022-11-05T09:27:47.230Z,3.42
2022-11-05T09:30:14.520Z,9.48
2022-11-05T09:32:41.651Z,6.57
2022-11-05T09:35:09.345Z,8.85
2022-11-05T09:37:37.317Z,7.78
2022-11-05T09:40:05.037Z,6.05
2022-11-05T09:42:37.912Z,8.20
2022-11-05T09:45:12.925Z,7.80
2022-11-05T09:47:44.236Z,7.75
2022-11-05T09:50:19.316Z,7.55
2022-11-05T09:52:46.147Z,6.50
2022-11-05T09:55:32.242Z,8.30
2022-11-05T09:58:06.377Z,10.60
2022-11-05T10:00:34.000Z,9.95
2022-11-05T10:03:10.095Z,8.75
2022-11-05T10:05:38.221Z,8.20
2022-11-05T10:08:12.452Z,5.95
2022-11-05T10:10:53.756Z,6.85
2022-11-05T10:13:33.278Z,5.57
2022-11-05T10:15:59.943Z,6.63
2022-11-05T10:18:28.780Z,9.20
2022-11-05T10:20:55.959Z,9.23
2022-11-05T10:23:23.552Z,9.90
2022-11-05T10:26:07.626Z,6.07
2022-11-05T10:28:35.454Z,4.53
2022-11-05T10:31:08.118Z,4.80
2022-11-05T10:33:50.177Z,7.03
2022-11-05T10:36:29.403Z,5.45
2022-11-05T10:39:10.274Z,8.02
2022-11-05T10:42:04.987Z,7.60
2022-11-05T10:44:41.341Z,6.22
2022-11-05T10:47:43.581Z,5.43
2022-11-05T10:50:13.825Z,4.32
2022-11-05T10:52:53.489Z,5.47
2022-11-05T10:55:45.599Z,2.85
2022-11-05T10:58:15.210Z,6.50
2022-11-05T11:01:03.821Z,4.43
2022-11-05T11:03:48.871Z,4.60
2022-11-05T11:06:18.461Z,5.93
2022-11-05T11:08:47.429Z,5.47
2022-11-05T11:11:30.938Z,5.13
2022-11-05T11:13:57.548Z,4.60
2022-11-05T11:16:26.335Z,6.03
2022-11-05T11:18:54.360Z,6.10
2022-11-05T11:21:24.843Z,6.78
2022-11-05T11:24:06.536Z,5.00
2022-11-05T11:26:37.706Z,5.57
2022-11-05T11:29:28.528Z,5.22
2022-11-05T11:31:56.646Z,4.82
2022-11-05T11:34:33.945Z,5.55
2022-11-05T11:37:15.347Z,6.55
2022-11-05T11:39:49.033Z,3.38
2022-11-05T11:42:31.562Z,5.07
2022-11-05T11:45:02.686Z,5.82
2022-11-05T11:47:30.155Z,4.75
2022-11-05T11:50:01.711Z,4.82
2022-11-05T11:52:37.278Z,4.93
2022-11-05T11:55:18.800Z,5.22
2022-11-05T11:57:54.584Z,4.65
2022-11-05T12:00:23.741Z,3.03
2022-11-05T12:03:12.644Z,4.57
2022-11-05T12:05:46.889Z,3.17
2022-11-05T12:08:36.852Z,3.97
2022-11-05T12:11:08.943Z,4.95
2022-11-05T12:13:51.417Z,7.22
2022-11-05T12:16:41.732Z,4.45
2022-11-05T12:19:30.057Z,5.82
2022-11-05T12:22:16.929Z,4.60
2022-11-05T12:25:02.438Z,4.40
2022-11-05T12:27:46.934Z,6.05
2022-11-05T12:30:18.374Z,5.28
2022-11-05T12:32:52.773Z,3.03
2022-11-05T12:35:47.389Z,4.20
2022-11-05T12:38:41.904Z,5.10
2022-11-05T12:41:14.705Z,3.40
2022-11-05T12:43:55.366Z,2.10
2022-11-05T12:46:25.009Z,3.83
2022-11-05T12:49:20.210Z,5.05
2022-11-05T12:52:31.421Z,3.47
2022-11-05T12:55:11.112Z,3.80
2022-11-05T12:57:41.460Z,2.22
2022-11-05T13:00:14.876Z,4.32
2022-11-05T13:03:17.032Z,4.20
2022-11-05T13:05:48.536Z,4.18
2022-11-05T13:10:59.923Z,3.72
2022-11-05T13:13:39.477Z,5.93
2022-11-05T13:16:43.275Z,3.38
2022-11-05T13:19:39.084Z,3.40
2022-11-05T13:22:40.011Z,5.85
2022-11-05T13:25:16.780Z,2.75
2022-11-05T13:27:58.626Z,2.42
2022-11-05T13:30:31.814Z,3.45
2022-11-05T13:33:05.961Z,4.38
2022-11-05T13:35:45.054Z,2.85
2022-11-05T13:38:45.208Z,2.08
2022-11-05T13:41:34.985Z,3.05
2022-11-05T13:44:30.513Z,5.82
2022-11-05T13:47:32.460Z,4.70
2022-11-05T13:50:36.730Z,6.00
2022-11-05T13:53:25.193Z,3.60
2022-11-05T13:55:54.907Z,6.65
2022-11-05T13:58:46.406Z,2.60
2022-11-05T14:01:38.125Z,4.40
2022-11-05T14:04:05.821Z,4.68
2022-11-05T14:06:35.927Z,2.92
2022-11-05T14:09:08.514Z,4.13
2022-11-05T14:11:50.047Z,7.03
2022-11-05T14:14:23.692Z,6.75
2022-11-05T14:17:12.935Z,5.10
2022-11-05T14:20:06.279Z,3.08
2022-11-05T14:22:33.155Z,5.45
2022-11-05T14:25:01.246Z,6.00
2022-11-05T14:27:36.978Z,3.50
2022-11-05T14:30:42.935Z,3.47
2022-11-05T14:33:24.956Z,4.38
2022-11-05T14:35:54.055Z,3.72
2022-11-05T14:38:26.522Z,3.22
2022-11-05T14:41:03.104Z,2.72
2022-11-05T14:43:33.749Z,4.47
2022-11-05T14:46:09.171Z,4.95
2022-11-05T14:48:38.836Z,3.40
2022-11-05T14:51:25.013Z,2.97
2022-11-05T14:54:00.679Z,4.80
2022-11-05T14:56:27.756Z,5.00
2022-11-05T14:59:23.529Z,3.58
2022-11-05T15:01:50.221Z,3.55
2022-11-05T15:04:25.036Z,4.78
2022-11-05T15:07:04.333Z,3.80
2022-11-05T15:09:57.619Z,5.32
2022-11-05T15:12:44.659Z,5.70
2022-11-05T15:15:21.968Z,6.15
2022-11-05T15:17:58.405Z,8.02
2022-11-05T15:20:39.740Z,3.88
2022-11-05T15:23:11.793Z,5.15
2022-11-05T15:28:31.144Z,3.42
2022-11-05T15:31:04.151Z,6.63
2022-11-05T15:33:31.441Z,6.68
2022-11-05T15:36:20.505Z,4.82
2022-11-05T15:39:08.121Z,3.05
2022-11-05T15:41:34.529Z,6.05
2022-11-05T15:44:02.727Z,4.05
2022-11-05T15:46:30.218Z,6.55
2022-11-05T15:49:00.541Z,3.03
2022-11-05T15:51:27.235Z,9.32
2022-11-05T15:54:24.332Z,4.10
2022-11-05T15:56:53.247Z,3.47
2022-11-05T15:59:22.173Z,5.00
2022-11-05T16:01:50.321Z,4.00
2022-11-05T16:04:23.629Z,4.40
2022-11-05T16:06:53.391Z,2.65
2022-11-05T16:09:22.947Z,3.75
2022-11-05T16:12:11.375Z,3.55
2022-11-05T16:14:38.379Z,4.57
2022-11-05T16:17:33.705Z,3.70
2022-11-05T16:20:00.717Z,8.57
2022-11-05T16:22:44.809Z,6.18
2022-11-05T16:25:29.579Z,9.23
2022-11-05T16:28:00.268Z,7.05
2022-11-05T16:30:28.047Z,8.05
2022-11-05T16:33:02.615Z,7.88
2022-11-05T16:35:30.096Z,5.80
2022-11-05T16:37:56.795Z,5.53
2022-11-05T16:40:25.615Z,8.02
2022-11-05T16:42:54.213Z,7.43
2022-11-05T16:45:24.455Z,6.63
2022-11-05T16:47:51.913Z,7.80
2022-11-05T16:50:25.228Z,7.57
2022-11-05T16:52:52.808Z,8.90
2022-11-05T16:55:20.088Z,6.88
2022-11-05T16:57:53.486Z,8.05
2022-11-05T17:00:21.600Z,8.05
2022-11-05T17:02:48.956Z,9.88
2022-11-05T17:05:27.789Z,8.48
2022-11-05T17:07:54.974Z,5.60
2022-11-05T17:10:23.993Z,7.95
2022-11-05T17:12:51.577Z,8.93
2022-11-05T17:15:21.921Z,4.10
2022-11-05T17:17:49.155Z,5.10
2022-11-05T17:20:25.808Z,4.47
2022-11-05T17:22:52.456Z,4.45
2022-11-05T17:25:19.100Z,6.35
2022-11-05T17:27:46.044Z,10.25
2022-11-05T17:30:13.244Z,8.52
2022-11-05T17:32:39.953Z,10.43
2022-11-05T17:35:07.519Z,7.47
2022-11-05T17:37:34.722Z,8.15
2022-11-05T17:40:02.052Z,6.75
2022-11-05T17:42:28.822Z,10.65
2022-11-05T17:44:55.465Z,7.20
2022-11-05T17:47:22.286Z,8.93
2022-11-05T17:49:49.024Z,8.80
2022-11-05T17:52:15.663Z,6.10
2022-11-05T17:54:42.391Z,8.20
2022-11-05T17:57:09.087Z,6.40
2022-11-05T17:59:36.480Z,8.85
2022-11-05T18:02:04.075Z,7.13
2022-11-05T18:04:32.443Z,6.47
2022-11-05T18:06:59.121Z,8.80
2022-11-05T18:09:26.046Z,5.35
2022-11-05T18:11:52.681Z,7.95
2022-11-05T18:14:23.835Z,6.78
2022-11-05T18:16:51.314Z,8.18
2022-11-05T18:19:18.148Z,7.03
2022-11-05T18:21:44.919Z,6.53
2022-11-05T18:24:12.244Z,6.10
2022-11-05T18:26:38.918Z,7.90
2022-11-05T18:29:06.238Z,5.30
2022-11-05T18:31:32.951Z,6.38
2022-11-05T18:34:00.251Z,4.85
2022-11-05T18:36:29.766Z,5.07
2022-11-05T18:39:01.611Z,6.97
2022-11-05T18:43:59.856Z,7.45
2022-11-05T18:46:56.055Z,6.72
2022-11-05T18:49:14.967Z,7.35
2022-11-05T18:51:41.804Z,6.03
2022-11-05T18:54:08.908Z,7.38
2022-11-05T18:56:35.854Z,8.82
2022-11-05T18:59:30.481Z,9.35
2022-11-05T19:01:49.822Z,16.77
2022-11-05T19:04:16.693Z,22.33
2022-11-05T19:06:43.411Z,23.33
2022-11-05T19:09:12.015Z,24.20
2022-11-05T19:11:39.739Z,22.27
2022-11-05T19:14:07.236Z,25.25
2022-11-05T19:16:34.281Z,30.92
2022-11-05T19:19:03.664Z,27.63
2022-11-05T19:21:31.038Z,29.50
2022-11-05T19:24:01.288Z,26.27
2022-11-05T19:26:29.208Z,21.45
2022-11-05T19:29:00.765Z,20.90
2022-11-05T19:31:28.006Z,17.02
2022-11-05T19:33:55.385Z,13.20
2022-11-05T19:36:24.255Z,14.45
2022-11-05T19:38:59.679Z,13.23
2022-11-05T19:41:27.036Z,17.00
2022-11-05T19:43:55.033Z,16.48
2022-11-05T19:46:23.294Z,14.93
2022-11-05T19:48:50.697Z,11.20
2022-11-05T19:51:20.246Z,13.73
2022-11-05T19:53:47.048Z,11.02
2022-11-05T19:56:19.791Z,12.55
2022-11-05T19:58:46.894Z,14.13
2022-11-05T20:01:15.848Z,14.23
2022-11-05T20:03:42.767Z,11.63
2022-11-05T20:06:15.932Z,8.32
2022-11-05T20:09:14.840Z,11.35
2022-11-05T20:11:31.601Z,8.85
2022-11-05T20:13:58.613Z,9.48
2022-11-05T20:16:34.482Z,15.05
2022-11-05T20:19:01.296Z,10.23
2022-11-05T20:21:27.944Z,9.32
2022-11-05T20:23:58.848Z,10.82
2022-11-05T20:26:26.443Z,10.38
2022-11-05T20:28:53.371Z,10.85
2022-11-05T20:31:20.868Z,16.30
2022-11-05T20:33:47.710Z,14.45
2022-11-05T20:36:17.016Z,11.43
2022-11-05T20:38:50.792Z,12.40
2022-11-05T20:41:18.289Z,13.70
2022-11-05T20:43:46.739Z,12.80
2022-11-05T20:46:16.712Z,14.57
2022-11-05T20:48:44.209Z,18.05
2022-11-05T20:51:14.988Z,16.67
2022-11-05T20:53:42.202Z,29.20
2022-11-05T20:56:15.259Z,33.83
2022-11-05T20:58:41.862Z,33.50
2022-11-05T21:01:11.178Z,32.92
2022-11-05T21:03:37.957Z,38.17
2022-11-05T21:06:06.394Z,40.40
2022-11-05T21:08:33.744Z,30.20
2022-11-05T21:11:00.833Z,30.90
2022-11-05T21:13:27.855Z,26.45
2022-11-05T21:15:57.245Z,23.85
2022-11-05T21:18:26.896Z,22.95
2022-11-05T21:20:54.189Z,21.27
2022-11-05T21:23:21.257Z,19.15
2022-11-05T21:25:48.217Z,19.73
2022-11-05T21:28:15.912Z,16.23
2022-11-05T21:30:45.735Z,16.02
2022-11-05T21:33:14.100Z,19.33
2022-11-05T21:35:48.539Z,14.68
2022-11-05T21:38:17.225Z,19.15
2022-11-05T21:40:45.161Z,17.73
2022-11-05T21:43:12.829Z,17.55
2022-11-05T21:45:44.173Z,15.75
2022-11-05T21:48:11.876Z,18.80
2022-11-05T21:50:57.486Z,16.25
2022-11-05T21:53:43.524Z,16.23
2022-11-05T21:56:39.018Z,15.35
2022-11-05T21:59:24.913Z,14.38
2022-11-05T22:02:01.384Z,17.85
2022-11-05T22:04:33.728Z,15.60
2022-11-05T22:07:00.597Z,15.32
2022-11-05T22:09:28.003Z,14.50
2022-11-05T22:11:55.273Z,14.25
2022-11-05T22:14:22.074Z,13.43
2022-11-05T22:16:48.780Z,13.80
2022-11-05T22:19:15.801Z,14.77
2022-11-05T22:21:42.523Z,13.73
2022-11-05T22:24:09.404Z,13.48
2022-11-05T22:26:37.702Z,16.65
2022-11-05T22:29:05.539Z,15.68
2022-11-05T22:31:36.276Z,15.77
2022-11-05T22:34:04.957Z,13.55
2022-11-05T22:36:32.894Z,13.32
2022-11-05T22:38:59.734Z,14.90
2022-11-05T22:41:26.511Z,16.77
2022-11-05T22:43:53.228Z,16.80
2022-11-05T22:46:22.558Z,14.30
2022-11-05T22:48:50.067Z,15.18
2022-11-05T22:51:29.761Z,14.93
2022-11-05T22:53:56.840Z,17.25
2022-11-05T22:56:26.878Z,14.57
2022-11-05T22:58:54.129Z,15.07
2022-11-05T23:01:25.192Z,13.40
2022-11-05T23:03:54.380Z,14.20
2022-11-05T23:06:42.869Z,17.58
2022-11-05T23:09:33.341Z,16.38
2022-11-05T23:12:00.447Z,14.13
2022-11-05T23:14:27.507Z,14.63
2022-11-05T23:17:13.522Z,16.00
2022-11-05T23:19:59.225Z,15.07
2022-11-05T23:22:47.979Z,15.05
2022-11-05T23:25:18.039Z,16.40
2022-11-05T23:27:49.795Z,14.32
2022-11-05T23:30:23.297Z,18.13
2022-11-05T23:32:51.600Z,15.35
2022-11-05T23:35:39.276Z,18.45
2022-11-05T23:38:24.649Z,14.30
2022-11-05T23:41:09.698Z,13.15
2022-11-05T23:43:54.960Z,13.98
2022-11-05T23:46:40.088Z,14.73
2022-11-05T23:49:06.731Z,15.75
2022-11-05T23:51:33.481Z,18.15
2022-11-05T23:54:00.194Z,19.30
2022-11-05T23:56:26.841Z,20.33
2022-11-05T23:58:53.496Z,18.40
